sensor_id;sensor_type;location;lat;lon;timestamp;P1;durP1;ratioP1;P2;durP2;ratioP2
9559;SDS011;4818;50.860;4.648;2024-03-23T00:55:57;2.78;;;0.65;;
9559;SDS011;4818;50.860;4.648;2024-03-23T00:58:23;8.25;;;1.50;;
9559;SDS011;4818;50.860;4.648;2024-03-23T01:00:49;4.60;;;0.60;;
9559;SDS011;4818;50.860;4.648;2024-03-23T01:03:15;3.65;;;0.57;;
9559;SDS011;4818;50.860;4.648;2024-03-23T01:05:41;1.20;;;0.40;;
9559;SDS011;4818;50.860;4.648;2024-03-23T01:08:07;4.43;;;0.80;;
9559;SDS011;4818;50.860;4.648;2024-03-23T01:10:33;4.78;;;0.57;;
9559;SDS011;4818;50.860;4.648;2024-03-23T01:12:59;2.47;;;0.55;;
9559;SDS011;4818;50.860;4.648;2024-03-23T01:15:25;3.42;;;0.40;;
9559;SDS011;4818;50.860;4.648;2024-03-23T01:17:51;7.15;;;0.70;;
9559;SDS011;4818;50.860;4.648;2024-03-23T01:20:17;3.95;;;1.13;;
9559;SDS011;4818;50.860;4.648;2024-03-23T01:22:44;2.38;;;0.55;;
9559;SDS011;4818;50.860;4.648;2024-03-23T01:25:10;5.68;;;1.17;;
9559;SDS011;4818;50.860;4.648;2024-03-23T01:27:36;2.88;;;0.90;;
9559;SDS011;4818;50.860;4.648;2024-03-23T01:30:02;4.15;;;0.90;;
9559;SDS011;4818;50.860;4.648;2024-03-23T01:32:28;4.10;;;0.80;;
9559;SDS011;4818;50.860;4.648;2024-03-23T01:34:54;3.58;;;0.50;;
9559;SDS011;4818;50.860;4.648;2024-03-23T01:37:20;4.45;;;0.40;;
9559;SDS011;4818;50.860;4.648;2024-03-23T01:39:46;5.82;;;0.95;;
9559;SDS011;4818;50.860;4.648;2024-03-23T01:42:12;11.35;;;0.60;;
9559;SDS011;4818;50.860;4.648;2024-03-23T01:44:38;3.65;;;0.63;;
9559;SDS011;4818;50.860;4.648;2024-03-23T01:47:06;7.80;;;0.50;;
9559;SDS011;4818;50.860;4.648;2024-03-23T01:49:32;1.63;;;0.50;;
9559;SDS011;4818;50.860;4.648;2024-03-23T01:51:59;4.13;;;0.63;;
9559;SDS011;4818;50.860;4.648;2024-03-23T01:54:25;3.38;;;0.40;;
9559;SDS011;4818;50.860;4.648;2024-03-23T01:56:51;4.60;;;0.57;;
9559;SDS011;4818;50.860;4.648;2024-03-23T01:59:17;3.20;;;0.30;;
9559;SDS011;4818;50.860;4.648;2024-03-23T02:01:43;6.43;;;0.82;;
9559;SDS011;4818;50.860;4.648;2024-03-23T02:04:10;3.28;;;1.15;;
9559;SDS011;4818;50.860;4.648;2024-03-23T02:06:36;1.45;;;0.30;;
9559;SDS011;4818;50.860;4.648;2024-03-23T02:09:02;1.90;;;0.40;;
9559;SDS011;4818;50.860;4.648;2024-03-23T02:11:28;7.75;;;0.50;;
9559;SDS011;4818;50.860;4.648;2024-03-23T02:13:55;4.95;;;0.88;;
9559;SDS011;4818;50.860;4.648;2024-03-23T02:16:21;1.52;;;0.50;;
9559;SDS011;4818;50.860;4.648;2024-03-23T02:18:47;3.28;;;0.80;;
9559;SDS011;4818;50.860;4.648;2024-03-23T02:21:15;1.92;;;0.50;;
9559;SDS011;4818;50.860;4.648;2024-03-23T02:23:41;5.53;;;0.60;;
9559;SDS011;4818;50.860;4.648;2024-03-23T02:26:07;1.40;;;0.47;;
9559;SDS011;4818;50.860;4.648;2024-03-23T02:28:33;2.33;;;0.68;;
9559;SDS011;4818;50.860;4.648;2024-03-23T02:30:59;4.57;;;0.50;;
9559;SDS011;4818;50.860;4.648;2024-03-23T02:33:26;10.23;;;0.75;;
9559;SDS011;4818;50.860;4.648;2024-03-23T02:35:55;1.52;;;0.70;;
9559;SDS011;4818;50.860;4.648;2024-03-23T02:38:22;1.95;;;0.70;;
9559;SDS011;4818;50.860;4.648;2024-03-23T02:40:48;6.45;;;0.65;;
9559;SDS011;4818;50.860;4.648;2024-03-23T02:43:15;4.30;;;0.50;;
9559;SDS011;4818;50.860;4.648;2024-03-23T02:45:41;7.28;;;0.85;;
9559;SDS011;4818;50.860;4.648;2024-03-23T02:48:07;4.82;;;0.90;;
9559;SDS011;4818;50.860;4.648;2024-03-23T02:50:33;2.78;;;0.73;;
9559;SDS011;4818;50.860;4.648;2024-03-23T02:52:59;5.80;;;1.85;;
9559;SDS011;4818;50.860;4.648;2024-03-23T02:55:25;5.30;;;1.10;;
9559;SDS011;4818;50.860;4.648;2024-03-23T02:57:52;4.30;;;1.48;;
9559;SDS011;4818;50.860;4.648;2024-03-23T03:00:19;6.53;;;1.92;;
9559;SDS011;4818;50.860;4.648;2024-03-23T03:02:48;3.45;;;1.00;;
9559;SDS011;4818;50.860;4.648;2024-03-23T03:05:14;8.48;;;1.98;;
9559;SDS011;4818;50.860;4.648;2024-03-23T03:07:41;4.20;;;1.25;;
9559;SDS011;4818;50.860;4.648;2024-03-23T03:10:07;4.03;;;1.20;;
9559;SDS011;4818;50.860;4.648;2024-03-23T03:12:36;7.27;;;1.13;;
9559;SDS011;4818;50.860;4.648;2024-03-23T03:15:02;6.57;;;1.75;;
9559;SDS011;4818;50.860;4.648;2024-03-23T03:17:28;6.35;;;1.70;;
9559;SDS011;4818;50.860;4.648;2024-03-23T03:19:54;3.88;;;1.80;;
9559;SDS011;4818;50.860;4.648;2024-03-23T03:22:21;3.72;;;1.17;;
9559;SDS011;4818;50.860;4.648;2024-03-23T03:24:47;10.30;;;1.80;;
9559;SDS011;4818;50.860;4.648;2024-03-23T03:27:13;5.85;;;1.20;;
9559;SDS011;4818;50.860;4.648;2024-03-23T03:29:40;4.05;;;1.00;;
9559;SDS011;4818;50.860;4.648;2024-03-23T03:32:06;2.83;;;0.70;;
9559;SDS011;4818;50.860;4.648;2024-03-23T03:34:32;5.50;;;1.15;;
9559;SDS011;4818;50.860;4.648;2024-03-23T03:36:58;7.63;;;0.82;;
9559;SDS011;4818;50.860;4.648;2024-03-23T03:39:24;1.75;;;0.70;;
9559;SDS011;4818;50.860;4.648;2024-03-23T03:41:51;11.65;;;1.92;;
9559;SDS011;4818;50.860;4.648;2024-03-23T03:44:17;8.32;;;1.38;;
9559;SDS011;4818;50.860;4.648;2024-03-23T03:46:43;5.95;;;1.33;;
9559;SDS011;4818;50.860;4.648;2024-03-23T03:49:09;5.00;;;0.93;;
9559;SDS011;4818;50.860;4.648;2024-03-23T03:51:35;7.18;;;2.03;;
9559;SDS011;4818;50.860;4.648;2024-03-23T03:54:01;3.72;;;1.00;;
9559;SDS011;4818;50.860;4.648;2024-03-23T03:56:27;4.30;;;1.48;;
9559;SDS011;4818;50.860;4.648;2024-03-23T03:58:53;4.57;;;1.48;;
9559;SDS011;4818;50.860;4.648;2024-03-23T04:01:19;5.93;;;1.67;;
9559;SDS011;4818;50.860;4.648;2024-03-23T04:03:45;5.05;;;1.58;;
9559;SDS011;4818;50.860;4.648;2024-03-23T04:06:12;10.38;;;1.85;;
9559;SDS011;4818;50.860;4.648;2024-03-23T04:08:44;7.32;;;1.70;;
9559;SDS011;4818;50.860;4.648;2024-03-23T04:11:10;10.63;;;2.42;;
9559;SDS011;4818;50.860;4.648;2024-03-23T04:13:36;5.50;;;1.20;;
9559;SDS011;4818;50.860;4.648;2024-03-23T04:16:02;10.77;;;1.90;;
9559;SDS011;4818;50.860;4.648;2024-03-23T04:18:28;5.00;;;1.77;;
9559;SDS011;4818;50.860;4.648;2024-03-23T04:20:54;8.27;;;1.83;;
9559;SDS011;4818;50.860;4.648;2024-03-23T04:23:21;6.80;;;3.28;;
9559;SDS011;4818;50.860;4.648;2024-03-23T04:25:47;9.55;;;1.92;;
9559;SDS011;4818;50.860;4.648;2024-03-23T04:28:13;4.57;;;1.25;;
9559;SDS011;4818;50.860;4.648;2024-03-23T04:30:39;5.78;;;2.25;;
9559;SDS011;4818;50.860;4.648;2024-03-23T04:33:05;6.07;;;1.70;;
9559;SDS011;4818;50.860;4.648;2024-03-23T04:35:31;5.85;;;1.95;;
9559;SDS011;4818;50.860;4.648;2024-03-23T04:37:57;4.10;;;2.30;;
9559;SDS011;4818;50.860;4.648;2024-03-23T04:40:24;10.80;;;2.60;;
9559;SDS011;4818;50.860;4.648;2024-03-23T04:42:50;6.38;;;2.42;;
9559;SDS011;4818;50.860;4.648;2024-03-23T04:45:16;10.43;;;2.95;;
9559;SDS011;4818;50.860;4.648;2024-03-23T04:47:42;10.05;;;2.95;;
9559;SDS011;4818;50.860;4.648;2024-03-23T04:50:08;7.38;;;2.42;;
9559;SDS011;4818;50.860;4.648;2024-03-23T04:52:35;7.10;;;2.45;;
9559;SDS011;4818;50.860;4.648;2024-03-23T04:55:02;9.82;;;4.22;;
9559;SDS011;4818;50.860;4.648;2024-03-23T04:57:28;7.70;;;3.38;;
9559;SDS011;4818;50.860;4.648;2024-03-23T04:59:55;10.02;;;2.33;;
9559;SDS011;4818;50.860;4.648;2024-03-23T05:02:21;5.75;;;2.60;;
9559;SDS011;4818;50.860;4.648;2024-03-23T05:04:47;12.18;;;2.70;;
9559;SDS011;4818;50.860;4.648;2024-03-23T05:07:13;5.82;;;2.15;;
9559;SDS011;4818;50.860;4.648;2024-03-23T05:09:39;6.97;;;2.53;;
9559;SDS011;4818;50.860;4.648;2024-03-23T05:12:06;6.03;;;1.73;;
9559;SDS011;4818;50.860;4.648;2024-03-23T05:14:32;10.98;;;3.35;;
9559;SDS011;4818;50.860;4.648;2024-03-23T05:16:58;5.35;;;1.90;;
9559;SDS011;4818;50.860;4.648;2024-03-23T05:19:24;5.50;;;1.55;;
9559;SDS011;4818;50.860;4.648;2024-03-23T05:21:50;6.45;;;1.58;;
9559;SDS011;4818;50.860;4.648;2024-03-23T05:24:18;3.28;;;1.00;;
9559;SDS011;4818;50.860;4.648;2024-03-23T05:26:44;4.30;;;1.55;;
9559;SDS011;4818;50.860;4.648;2024-03-23T05:29:10;3.50;;;0.80;;
9559;SDS011;4818;50.860;4.648;2024-03-23T05:31:38;9.18;;;1.70;;
9559;SDS011;4818;50.860;4.648;2024-03-23T05:34:06;7.57;;;1.60;;
9559;SDS011;4818;50.860;4.648;2024-03-23T05:36:32;5.07;;;1.45;;
9559;SDS011;4818;50.860;4.648;2024-03-23T05:38:58;5.57;;;2.17;;
9559;SDS011;4818;50.860;4.648;2024-03-23T05:41:24;4.22;;;1.50;;
9559;SDS011;4818;50.860;4.648;2024-03-23T05:43:51;4.78;;;1.85;;
9559;SDS011;4818;50.860;4.648;2024-03-23T05:46:17;3.30;;;1.23;;
9559;SDS011;4818;50.860;4.648;2024-03-23T05:48:43;4.05;;;1.58;;
9559;SDS011;4818;50.860;4.648;2024-03-23T05:51:09;7.97;;;1.55;;
9559;SDS011;4818;50.860;4.648;2024-03-23T05:53:37;5.82;;;1.10;;
9559;SDS011;4818;50.860;4.648;2024-03-23T05:56:03;5.93;;;1.25;;
9559;SDS011;4818;50.860;4.648;2024-03-23T05:58:30;3.55;;;1.55;;
9559;SDS011;4818;50.860;4.648;2024-03-23T06:00:57;4.68;;;1.35;;
9559;SDS011;4818;50.860;4.648;2024-03-23T06:03:24;6.55;;;1.33;;
9559;SDS011;4818;50.860;4.648;2024-03-23T06:05:51;7.10;;;1.85;;
9559;SDS011;4818;50.860;4.648;2024-03-23T06:08:18;10.80;;;2.15;;
9559;SDS011;4818;50.860;4.648;2024-03-23T06:10:44;4.03;;;1.90;;
9559;SDS011;4818;50.860;4.648;2024-03-23T06:13:11;7.00;;;1.77;;
9559;SDS011;4818;50.860;4.648;2024-03-23T06:15:37;7.22;;;2.53;;
9559;SDS011;4818;50.860;4.648;2024-03-23T06:18:03;5.35;;;1.15;;
9559;SDS011;4818;50.860;4.648;2024-03-23T06:20:30;6.10;;;1.10;;
9559;SDS011;4818;50.860;4.648;2024-03-23T06:22:56;5.25;;;1.10;;
9559;SDS011;4818;50.860;4.648;2024-03-23T06:25:22;5.90;;;1.63;;
9559;SDS011;4818;50.860;4.648;2024-03-23T06:27:48;3.97;;;0.93;;
9559;SDS011;4818;50.860;4.648;2024-03-23T06:30:15;3.55;;;1.08;;
9559;SDS011;4818;50.860;4.648;2024-03-23T06:32:41;7.57;;;1.30;;
9559;SDS011;4818;50.860;4.648;2024-03-23T06:35:07;3.05;;;1.48;;
9559;SDS011;4818;50.860;4.648;2024-03-23T06:37:37;7.15;;;0.75;;
9559;SDS011;4818;50.860;4.648;2024-03-23T06:40:06;2.08;;;0.40;;
9559;SDS011;4818;50.860;4.648;2024-03-23T06:42:34;7.15;;;1.05;;
9559;SDS011;4818;50.860;4.648;2024-03-23T06:45:00;3.30;;;0.60;;
9559;SDS011;4818;50.860;4.648;2024-03-23T06:47:26;4.07;;;0.98;;
9559;SDS011;4818;50.860;4.648;2024-03-23T06:49:52;1.85;;;0.70;;
9559;SDS011;4818;50.860;4.648;2024-03-23T06:52:18;2.90;;;0.50;;
9559;SDS011;4818;50.860;4.648;2024-03-23T06:54:44;4.03;;;1.15;;
9559;SDS011;4818;50.860;4.648;2024-03-23T06:57:11;2.65;;;0.35;;
9559;SDS011;4818;50.860;4.648;2024-03-23T06:59:37;2.30;;;0.40;;
9559;SDS011;4818;50.860;4.648;2024-03-23T07:02:04;1.30;;;0.30;;
9559;SDS011;4818;50.860;4.648;2024-03-23T07:04:30;2.90;;;0.30;;
9559;SDS011;4818;50.860;4.648;2024-03-23T07:06:56;1.65;;;0.50;;
9559;SDS011;4818;50.860;4.648;2024-03-23T07:09:22;1.17;;;0.20;;
9559;SDS011;4818;50.860;4.648;2024-03-23T07:11:51;0.80;;;0.20;;
9559;SDS011;4818;50.860;4.648;2024-03-23T07:14:17;1.55;;;0.28;;
9559;SDS011;4818;50.860;4.648;2024-03-23T07:16:43;7.57;;;1.27;;
9559;SDS011;4818;50.860;4.648;2024-03-23T07:19:09;1.48;;;0.20;;
9559;SDS011;4818;50.860;4.648;2024-03-23T07:21:35;0.90;;;0.30;;
9559;SDS011;4818;50.860;4.648;2024-03-23T07:24:01;1.45;;;0.20;;
9559;SDS011;4818;50.860;4.648;2024-03-23T07:26:28;3.03;;;0.38;;
9559;SDS011;4818;50.860;4.648;2024-03-23T07:28:54;2.53;;;0.80;;
9559;SDS011;4818;50.860;4.648;2024-03-23T07:31:20;4.53;;;0.60;;
9559;SDS011;4818;50.860;4.648;2024-03-23T07:33:48;1.52;;;0.40;;
9559;SDS011;4818;50.860;4.648;2024-03-23T07:36:14;2.85;;;0.35;;
9559;SDS011;4818;50.860;4.648;2024-03-23T07:38:41;1.48;;;0.30;;
9559;SDS011;4818;50.860;4.648;2024-03-23T07:41:17;2.92;;;0.68;;
9559;SDS011;4818;50.860;4.648;2024-03-23T07:43:44;2.38;;;0.32;;
9559;SDS011;4818;50.860;4.648;2024-03-23T07:46:10;0.40;;;0.00;;
9559;SDS011;4818;50.860;4.648;2024-03-23T07:48:37;0.38;;;0.10;;
9559;SDS011;4818;50.860;4.648;2024-03-23T07:51:04;3.13;;;0.10;;
9559;SDS011;4818;50.860;4.648;2024-03-23T07:53:33;1.10;;;0.30;;
9559;SDS011;4818;50.860;4.648;2024-03-23T07:56:07;0.80;;;0.20;;
9559;SDS011;4818;50.860;4.648;2024-03-23T07:58:37;2.10;;;0.20;;
9559;SDS011;4818;50.860;4.648;2024-03-23T08:01:07;1.55;;;0.20;;
9559;SDS011;4818;50.860;4.648;2024-03-23T08:03:37;2.22;;;0.50;;
9559;SDS011;4818;50.860;4.648;2024-03-23T08:06:21;2.40;;;0.63;;
9559;SDS011;4818;50.860;4.648;2024-03-23T08:08:56;6.65;;;0.75;;
9559;SDS011;4818;50.860;4.648;2024-03-23T08:11:26;1.50;;;0.50;;
9559;SDS011;4818;50.860;4.648;2024-03-23T08:13:52;3.75;;;1.02;;
9559;SDS011;4818;50.860;4.648;2024-03-23T08:16:18;2.78;;;0.28;;
9559;SDS011;4818;50.860;4.648;2024-03-23T08:18:44;5.57;;;0.55;;
9559;SDS011;4818;50.860;4.648;2024-03-23T08:21:10;3.08;;;0.30;;
9559;SDS011;4818;50.860;4.648;2024-03-23T08:23:37;3.15;;;0.50;;
9559;SDS011;4818;50.860;4.648;2024-03-23T08:26:04;4.85;;;0.47;;
9559;SDS011;4818;50.860;4.648;2024-03-23T08:28:31;4.55;;;1.05;;
9559;SDS011;4818;50.860;4.648;2024-03-23T08:31:00;3.47;;;0.55;;
9559;SDS011;4818;50.860;4.648;2024-03-23T08:33:26;3.15;;;0.65;;
9559;SDS011;4818;50.860;4.648;2024-03-23T08:35:53;2.72;;;0.25;;
9559;SDS011;4818;50.860;4.648;2024-03-23T08:38:20;3.70;;;0.32;;
9559;SDS011;4818;50.860;4.648;2024-03-23T08:40:46;1.70;;;0.20;;
9559;SDS011;4818;50.860;4.648;2024-03-23T08:43:13;1.65;;;0.52;;
9559;SDS011;4818;50.860;4.648;2024-03-23T08:45:39;2.75;;;0.20;;
9559;SDS011;4818;50.860;4.648;2024-03-23T08:48:06;4.32;;;0.22;;
9559;SDS011;4818;50.860;4.648;2024-03-23T08:50:32;2.08;;;0.43;;
9559;SDS011;4818;50.860;4.648;2024-03-23T08:52:58;6.20;;;0.50;;
9559;SDS011;4818;50.860;4.648;2024-03-23T08:55:24;4.40;;;0.30;;
9559;SDS011;4818;50.860;4.648;2024-03-23T08:57:50;1.85;;;0.17;;
9559;SDS011;4818;50.860;4.648;2024-03-23T09:00:17;2.78;;;0.45;;
9559;SDS011;4818;50.860;4.648;2024-03-23T09:02:44;4.07;;;0.32;;
9559;SDS011;4818;50.860;4.648;2024-03-23T09:07:39;6.80;;;0.93;;
9559;SDS011;4818;50.860;4.648;2024-03-23T09:10:05;4.05;;;0.20;;
9559;SDS011;4818;50.860;4.648;2024-03-23T09:12:31;1.85;;;0.40;;
9559;SDS011;4818;50.860;4.648;2024-03-23T09:14:57;4.57;;;0.50;;
9559;SDS011;4818;50.860;4.648;2024-03-23T09:17:23;2.97;;;0.30;;
9559;SDS011;4818;50.860;4.648;2024-03-23T09:19:49;3.72;;;0.45;;
9559;SDS011;4818;50.860;4.648;2024-03-23T09:22:15;2.13;;;0.20;;
9559;SDS011;4818;50.860;4.648;2024-03-23T09:24:42;3.53;;;0.30;;
9559;SDS011;4818;50.860;4.648;2024-03-23T09:27:08;3.80;;;0.28;;
9559;SDS011;4818;50.860;4.648;2024-03-23T09:29:34;5.25;;;0.35;;
9559;SDS011;4818;50.860;4.648;2024-03-23T09:32:01;0.90;;;0.17;;
9559;SDS011;4818;50.860;4.648;2024-03-23T09:34:27;7.15;;;0.30;;
9559;SDS011;4818;50.860;4.648;2024-03-23T09:36:53;2.03;;;0.20;;
9559;SDS011;4818;50.860;4.648;2024-03-23T09:39:19;4.57;;;0.30;;
9559;SDS011;4818;50.860;4.648;2024-03-23T09:41:45;2.30;;;0.47;;
9559;SDS011;4818;50.860;4.648;2024-03-23T09:44:11;1.25;;;0.50;;
9559;SDS011;4818;50.860;4.648;2024-03-23T09:46:38;4.75;;;0.40;;
9559;SDS011;4818;50.860;4.648;2024-03-23T09:49:05;5.30;;;0.20;;
9559;SDS011;4818;50.860;4.648;2024-03-23T09:51:31;5.45;;;0.20;;
9559;SDS011;4818;50.860;4.648;2024-03-23T09:53:57;5.55;;;0.20;;
9559;SDS011;4818;50.860;4.648;2024-03-23T09:56:23;5.40;;;0.30;;
9559;SDS011;4818;50.860;4.648;2024-03-23T09:58:49;4.55;;;0.45;;
9559;SDS011;4818;50.860;4.648;2024-03-23T10:01:16;1.15;;;0.20;;
9559;SDS011;4818;50.860;4.648;2024-03-23T10:03:46;0.55;;;0.20;;
9559;SDS011;4818;50.860;4.648;2024-03-23T10:06:12;2.33;;;0.38;;
9559;SDS011;4818;50.860;4.648;2024-03-23T10:08:38;1.13;;;0.13;;
9559;SDS011;4818;50.860;4.648;2024-03-23T10:11:14;3.35;;;0.30;;
9559;SDS011;4818;50.860;4.648;2024-03-23T10:13:41;0.57;;;0.28;;
9559;SDS011;4818;50.860;4.648;2024-03-23T10:16:08;2.72;;;0.20;;
9559;SDS011;4818;50.860;4.648;2024-03-23T10:18:38;1.95;;;0.25;;
9559;SDS011;4818;50.860;4.648;2024-03-23T10:23:31;0.90;;;0.30;;
9559;SDS011;4818;50.860;4.648;2024-03-23T10:28:59;1.23;;;0.32;;
9559;SDS011;4818;50.860;4.648;2024-03-23T10:31:33;1.45;;;0.30;;
9559;SDS011;4818;50.860;4.648;2024-03-23T10:34:04;6.13;;;0.52;;
9559;SDS011;4818;50.860;4.648;2024-03-23T10:36:30;1.80;;;0.10;;
9559;SDS011;4818;50.860;4.648;2024-03-23T10:38:56;2.22;;;0.20;;
9559;SDS011;4818;50.860;4.648;2024-03-23T10:41:28;1.63;;;0.30;;
9559;SDS011;4818;50.860;4.648;2024-03-23T10:43:55;1.10;;;0.20;;
9559;SDS011;4818;50.860;4.648;2024-03-23T10:46:21;0.82;;;0.10;;
9559;SDS011;4818;50.860;4.648;2024-03-23T10:48:48;0.85;;;0.10;;
9559;SDS011;4818;50.860;4.648;2024-03-23T10:51:14;1.38;;;0.10;;
9559;SDS011;4818;50.860;4.648;2024-03-23T10:53:41;0.90;;;0.20;;
9559;SDS011;4818;50.860;4.648;2024-03-23T10:56:09;1.48;;;0.10;;
9559;SDS011;4818;50.860;4.648;2024-03-23T10:58:37;4.70;;;0.17;;
9559;SDS011;4818;50.860;4.648;2024-03-23T11:01:04;1.17;;;0.20;;
9559;SDS011;4818;50.860;4.648;2024-03-23T11:03:38;1.65;;;0.20;;
9559;SDS011;4818;50.860;4.648;2024-03-23T11:06:11;2.00;;;0.10;;
9559;SDS011;4818;50.860;4.648;2024-03-23T11:08:57;0.80;;;0.15;;
9559;SDS011;4818;50.860;4.648;2024-03-23T11:11:23;1.33;;;0.30;;
9559;SDS011;4818;50.860;4.648;2024-03-23T11:13:52;2.63;;;0.20;;
9559;SDS011;4818;50.860;4.648;2024-03-23T11:16:22;3.30;;;0.10;;
9559;SDS011;4818;50.860;4.648;2024-03-23T11:18:49;0.93;;;0.20;;
9559;SDS011;4818;50.860;4.648;2024-03-23T11:21:51;2.53;;;0.13;;
9559;SDS011;4818;50.860;4.648;2024-03-23T11:24:14;2.10;;;0.10;;
9559;SDS011;4818;50.860;4.648;2024-03-23T11:26:40;1.23;;;0.20;;
9559;SDS011;4818;50.860;4.648;2024-03-23T11:29:10;1.48;;;0.05;;
9559;SDS011;4818;50.860;4.648;2024-03-23T11:31:37;2.13;;;0.10;;
9559;SDS011;4818;50.860;4.648;2024-03-23T11:34:06;0.95;;;0.10;;
9559;SDS011;4818;50.860;4.648;2024-03-23T11:36:43;2.70;;;0.10;;
9559;SDS011;4818;50.860;4.648;2024-03-23T11:39:16;0.80;;;0.00;;
9559;SDS011;4818;50.860;4.648;2024-03-23T11:41:53;0.73;;;0.05;;
9559;SDS011;4818;50.860;4.648;2024-03-23T11:44:20;1.20;;;0.10;;
9559;SDS011;4818;50.860;4.648;2024-03-23T11:46:50;0.57;;;0.20;;
9559;SDS011;4818;50.860;4.648;2024-03-23T11:49:26;2.75;;;0.00;;
9559;SDS011;4818;50.860;4.648;2024-03-23T11:51:53;1.65;;;0.10;;
9559;SDS011;4818;50.860;4.648;2024-03-23T11:54:20;4.47;;;0.30;;
9559;SDS011;4818;50.860;4.648;2024-03-23T11:56:53;1.92;;;0.10;;
9559;SDS011;4818;50.860;4.648;2024-03-23T11:59:30;0.85;;;0.00;;
9559;SDS011;4818;50.860;4.648;2024-03-23T12:01:56;4.35;;;0.20;;
9559;SDS011;4818;50.860;4.648;2024-03-23T12:04:28;1.60;;;0.00;;
9559;SDS011;4818;50.860;4.648;2024-03-23T12:07:16;0.98;;;0.32;;
9559;SDS011;4818;50.860;4.648;2024-03-23T12:10:03;0.45;;;0.10;;
9559;SDS011;4818;50.860;4.648;2024-03-23T12:12:30;0.85;;;0.10;;
9559;SDS011;4818;50.860;4.648;2024-03-23T12:15:03;1.77;;;0.00;;
9559;SDS011;4818;50.860;4.648;2024-03-23T12:17:30;1.25;;;0.10;;
9559;SDS011;4818;50.860;4.648;2024-03-23T12:19:56;0.80;;;0.10;;
9559;SDS011;4818;50.860;4.648;2024-03-23T12:22:23;1.33;;;0.30;;
9559;SDS011;4818;50.860;4.648;2024-03-23T12:24:50;0.32;;;0.30;;
9559;SDS011;4818;50.860;4.648;2024-03-23T12:27:17;1.98;;;0.10;;
9559;SDS011;4818;50.860;4.648;2024-03-23T12:29:43;0.90;;;0.10;;
9559;SDS011;4818;50.860;4.648;2024-03-23T12:32:13;2.85;;;0.35;;
9559;SDS011;4818;50.860;4.648;2024-03-23T12:34:39;2.58;;;0.10;;
9559;SDS011;4818;50.860;4.648;2024-03-23T12:37:06;3.47;;;0.20;;
9559;SDS011;4818;50.860;4.648;2024-03-23T12:39:33;1.25;;;0.17;;
9559;SDS011;4818;50.860;4.648;2024-03-23T12:42:00;2.45;;;0.10;;
9559;SDS011;4818;50.860;4.648;2024-03-23T12:44:28;1.58;;;0.15;;
9559;SDS011;4818;50.860;4.648;2024-03-23T12:46:54;3.60;;;0.20;;
9559;SDS011;4818;50.860;4.648;2024-03-23T12:49:20;2.15;;;0.10;;
9559;SDS011;4818;50.860;4.648;2024-03-23T12:51:56;3.10;;;0.17;;
9559;SDS011;4818;50.860;4.648;2024-03-23T12:54:22;2.38;;;0.20;;
9559;SDS011;4818;50.860;4.648;2024-03-23T12:56:53;1.92;;;0.10;;
9559;SDS011;4818;50.860;4.648;2024-03-23T12:59:19;0.35;;;0.05;;
9559;SDS011;4818;50.860;4.648;2024-03-23T13:01:45;0.25;;;0.00;;
9559;SDS011;4818;50.860;4.648;2024-03-23T13:04:14;1.33;;;0.20;;
9559;SDS011;4818;50.860;4.648;2024-03-23T13:09:07;1.90;;;0.10;;
9559;SDS011;4818;50.860;4.648;2024-03-23T13:11:34;1.30;;;0.10;;
9559;SDS011;4818;50.860;4.648;2024-03-23T13:14:06;0.22;;;0.03;;
9559;SDS011;4818;50.860;4.648;2024-03-23T13:16:33;1.48;;;0.10;;
9559;SDS011;4818;50.860;4.648;2024-03-23T13:19:15;3.13;;;0.10;;
9559;SDS011;4818;50.860;4.648;2024-03-23T13:21:41;1.42;;;0.03;;
9559;SDS011;4818;50.860;4.648;2024-03-23T13:24:08;3.33;;;0.17;;
9559;SDS011;4818;50.860;4.648;2024-03-23T13:26:34;1.38;;;0.20;;
9559;SDS011;4818;50.860;4.648;2024-03-23T13:29:00;1.08;;;0.10;;
9559;SDS011;4818;50.860;4.648;2024-03-23T13:31:27;0.20;;;0.00;;
9559;SDS011;4818;50.860;4.648;2024-03-23T13:33:53;0.73;;;0.00;;
9559;SDS011;4818;50.860;4.648;2024-03-23T13:36:19;0.05;;;0.00;;
9559;SDS011;4818;50.860;4.648;2024-03-23T13:38:45;0.43;;;0.10;;
9559;SDS011;4818;50.860;4.648;2024-03-23T13:41:11;1.15;;;0.10;;
9559;SDS011;4818;50.860;4.648;2024-03-23T13:43:37;0.10;;;0.00;;
9559;SDS011;4818;50.860;4.648;2024-03-23T13:46:03;0.68;;;0.03;;
9559;SDS011;4818;50.860;4.648;2024-03-23T13:48:29;0.65;;;0.10;;
9559;SDS011;4818;50.860;4.648;2024-03-23T13:51:02;1.40;;;0.08;;
9559;SDS011;4818;50.860;4.648;2024-03-23T13:53:29;0.20;;;0.00;;
9559;SDS011;4818;50.860;4.648;2024-03-23T13:55:55;0.80;;;0.10;;
9559;SDS011;4818;50.860;4.648;2024-03-23T13:58:21;7.78;;;0.10;;
9559;SDS011;4818;50.860;4.648;2024-03-23T14:00:51;2.13;;;0.47;;
9559;SDS011;4818;50.860;4.648;2024-03-23T14:03:17;1.70;;;0.10;;
9559;SDS011;4818;50.860;4.648;2024-03-23T14:05:43;0.40;;;0.00;;
9559;SDS011;4818;50.860;4.648;2024-03-23T14:08:10;0.15;;;0.00;;
9559;SDS011;4818;50.860;4.648;2024-03-23T14:10:37;1.23;;;0.05;;
9559;SDS011;4818;50.860;4.648;2024-03-23T14:13:06;5.28;;;0.10;;
9559;SDS011;4818;50.860;4.648;2024-03-23T14:15:32;0.35;;;0.03;;
9559;SDS011;4818;50.860;4.648;2024-03-23T14:17:58;0.40;;;0.03;;
9559;SDS011;4818;50.860;4.648;2024-03-23T14:20:25;3.45;;;0.00;;
9559;SDS011;4818;50.860;4.648;2024-03-23T14:22:52;3.30;;;0.10;;
9559;SDS011;4818;50.860;4.648;2024-03-23T14:25:18;0.63;;;0.10;;
9559;SDS011;4818;50.860;4.648;2024-03-23T14:27:44;0.28;;;0.00;;
9559;SDS011;4818;50.860;4.648;2024-03-23T14:30:11;4.93;;;0.65;;
9559;SDS011;4818;50.860;4.648;2024-03-23T14:32:37;1.95;;;0.25;;
9559;SDS011;4818;50.860;4.648;2024-03-23T14:35:04;3.22;;;0.10;;
9559;SDS011;4818;50.860;4.648;2024-03-23T14:37:32;1.00;;;0.00;;
9559;SDS011;4818;50.860;4.648;2024-03-23T14:39:58;0.47;;;0.10;;
9559;SDS011;4818;50.860;4.648;2024-03-23T14:42:25;1.17;;;0.17;;
9559;SDS011;4818;50.860;4.648;2024-03-23T14:44:51;0.50;;;0.10;;
9559;SDS011;4818;50.860;4.648;2024-03-23T14:47:18;2.63;;;0.30;;
9559;SDS011;4818;50.860;4.648;2024-03-23T14:49:46;0.55;;;0.00;;
9559;SDS011;4818;50.860;4.648;2024-03-23T14:52:13;3.47;;;0.10;;
9559;SDS011;4818;50.860;4.648;2024-03-23T14:54:39;0.20;;;0.00;;
9559;SDS011;4818;50.860;4.648;2024-03-23T14:57:05;0.32;;;0.00;;
9559;SDS011;4818;50.860;4.648;2024-03-23T14:59:34;0.77;;;0.30;;
9559;SDS011;4818;50.860;4.648;2024-03-23T15:02:00;0.80;;;0.17;;
9559;SDS011;4818;50.860;4.648;2024-03-23T15:04:26;3.28;;;0.10;;
9559;SDS011;4818;50.860;4.648;2024-03-23T15:06:53;1.27;;;0.10;;
9559;SDS011;4818;50.860;4.648;2024-03-23T15:09:19;0.68;;;0.10;;
9559;SDS011;4818;50.860;4.648;2024-03-23T15:11:45;1.45;;;0.20;;
9559;SDS011;4818;50.860;4.648;2024-03-23T15:14:11;4.13;;;0.20;;
9559;SDS011;4818;50.860;4.648;2024-03-23T15:16:37;1.45;;;0.00;;
9559;SDS011;4818;50.860;4.648;2024-03-23T15:19:03;1.63;;;0.10;;
9559;SDS011;4818;50.860;4.648;2024-03-23T15:21:31;0.25;;;0.00;;
9559;SDS011;4818;50.860;4.648;2024-03-23T15:23:57;3.25;;;0.10;;
9559;SDS011;4818;50.860;4.648;2024-03-23T15:26:23;0.40;;;0.10;;
9559;SDS011;4818;50.860;4.648;2024-03-23T15:28:50;2.33;;;0.20;;
9559;SDS011;4818;50.860;4.648;2024-03-23T15:31:23;3.25;;;0.10;;
9559;SDS011;4818;50.860;4.648;2024-03-23T15:33:49;3.20;;;0.17;;
9559;SDS011;4818;50.860;4.648;2024-03-23T15:36:15;1.35;;;0.30;;
9559;SDS011;4818;50.860;4.648;2024-03-23T15:38:42;0.63;;;0.10;;
9559;SDS011;4818;50.860;4.648;2024-03-23T15:41:08;1.70;;;0.10;;
9559;SDS011;4818;50.860;4.648;2024-03-23T15:43:34;2.85;;;0.40;;
9559;SDS011;4818;50.860;4.648;2024-03-23T15:46:01;0.52;;;0.22;;
9559;SDS011;4818;50.860;4.648;2024-03-23T15:48:28;3.55;;;0.10;;
9559;SDS011;4818;50.860;4.648;2024-03-23T15:50:55;5.40;;;0.25;;
9559;SDS011;4818;50.860;4.648;2024-03-23T15:53:21;1.63;;;0.10;;
9559;SDS011;4818;50.860;4.648;2024-03-23T15:55:54;2.13;;;0.65;;
9559;SDS011;4818;50.860;4.648;2024-03-23T15:58:21;1.48;;;0.05;;
9559;SDS011;4818;50.860;4.648;2024-03-23T16:01:03;1.55;;;0.10;;
9559;SDS011;4818;50.860;4.648;2024-03-23T16:03:30;0.30;;;0.00;;
9559;SDS011;4818;50.860;4.648;2024-03-23T16:06:01;3.20;;;0.10;;
9559;SDS011;4818;50.860;4.648;2024-03-23T16:08:28;3.20;;;0.10;;
9559;SDS011;4818;50.860;4.648;2024-03-23T16:10:59;0.60;;;0.10;;
9559;SDS011;4818;50.860;4.648;2024-03-23T16:13:25;3.35;;;0.25;;
9559;SDS011;4818;50.860;4.648;2024-03-23T16:15:56;2.63;;;0.55;;
9559;SDS011;4818;50.860;4.648;2024-03-23T16:18:23;0.15;;;0.00;;
9559;SDS011;4818;50.860;4.648;2024-03-23T16:20:56;0.22;;;0.10;;